createdAt,value
2022-09-20T00:04:28.024Z,9.48
2022-09-20T00:09:30.873Z,9.48
2022-09-20T00:14:33.655Z,9.49
2022-09-20T00:19:36.311Z,9.43
2022-09-20T00:24:38.913Z,9.44
2022-09-20T00:35:39.427Z,9.46
2022-09-20T00:45:53.386Z,9.44
2022-09-20T00:50:56.020Z,9.39
2022-09-20T00:55:58.908Z,9.38
2022-09-20T01:01:01.845Z,9.34
2022-09-20T01:06:04.501Z,9.38
2022-09-20T01:11:09.612Z,9.35
2022-09-20T01:16:12.171Z,9.35
2022-09-20T01:21:14.877Z,9.39
2022-09-20T01:26:20.384Z,9.44
2022-09-20T01:31:23.297Z,9.39
2022-09-20T01:36:26.034Z,9.24
2022-09-20T01:41:28.736Z,9.29
2022-09-20T01:51:34.167Z,9.21
2022-09-20T01:56:36.741Z,9.24
2022-09-20T02:01:39.376Z,9.23
2022-09-20T02:06:42.053Z,9.27
2022-09-20T02:11:44.823Z,9.22
2022-09-20T02:16:47.522Z,9.28
2022-09-20T02:21:50.462Z,9.32
2022-09-20T02:26:56.147Z,9.29
2022-09-20T02:31:58.946Z,9.28
2022-09-20T02:37:04.339Z,9.43
2022-09-20T02:42:07.072Z,9.49
2022-09-20T02:47:09.935Z,9.59
2022-09-20T02:52:12.364Z,9.65
2022-09-20T03:02:17.780Z,9.61
2022-09-20T03:12:23.158Z,9.66
2022-09-20T03:17:25.732Z,9.71
2022-09-20T03:22:28.450Z,9.69
2022-09-20T03:32:34.107Z,9.82
2022-09-20T03:42:39.722Z,9.92
2022-09-20T03:47:42.457Z,9.99
2022-09-20T03:52:45.127Z,10
2022-09-20T03:57:47.824Z,10.05
2022-09-20T04:02:53.227Z,10.02
2022-09-20T04:07:56.122Z,10.05
2022-09-20T04:12:58.743Z,10.07
2022-09-20T04:18:01.362Z,10
2022-09-20T04:23:03.887Z,9.97
2022-09-20T04:28:06.773Z,10
2022-09-20T04:33:09.478Z,9.96
2022-09-20T04:38:12.204Z,9.91
2022-09-20T04:43:14.766Z,9.92
2022-09-20T04:48:17.724Z,9.95
2022-09-20T04:53:20.661Z,9.95
2022-09-20T04:58:23.374Z,9.96
2022-09-20T05:03:26.105Z,10.03
2022-09-20T05:13:31.780Z,10.02
2022-09-20T05:18:34.854Z,10.08
2022-09-20T05:23:37.422Z,10.14
2022-09-20T05:28:40.074Z,10.15
2022-09-20T05:33:42.772Z,10.52
2022-09-20T05:38:45.532Z,10.8
2022-09-20T05:48:50.641Z,11.18
2022-09-20T05:53:53.342Z,11.58
2022-09-20T06:03:59.201Z,11.65
2022-09-20T06:09:01.939Z,11.78
2022-09-20T06:14:04.583Z,12.08
2022-09-20T06:19:46.952Z,12.26
2022-09-20T06:24:49.868Z,11.92
2022-09-20T06:29:52.679Z,12.03
2022-09-20T06:34:55.204Z,12.01
2022-09-20T06:45:00.644Z,11.75
2022-09-20T06:50:03.253Z,11.61
2022-09-20T06:55:05.868Z,11.75
2022-09-20T07:00:08.666Z,11.72
2022-09-20T07:05:11.132Z,11.59
2022-09-20T07:10:13.704Z,11.91
2022-09-20T07:20:21.409Z,12.21
2022-09-20T07:30:24.968Z,12.65
2022-09-20T07:35:27.752Z,13.15
2022-09-20T07:45:33.131Z,13.24
2022-09-20T07:50:35.736Z,13.81
2022-09-20T07:55:38.546Z,14.13
2022-09-20T08:05:43.841Z,14.45
2022-09-20T08:10:46.423Z,14.15
2022-09-20T08:20:51.965Z,14.72
2022-09-20T08:41:02.640Z,14.86
2022-09-20T08:46:05.878Z,15.29
2022-09-20T08:51:07.927Z,15.24
2022-09-20T09:01:13.180Z,14.73
2022-09-20T09:11:19.238Z,15.62
2022-09-20T09:16:25.820Z,15.43
2022-09-20T09:21:24.411Z,15.6
2022-09-20T09:26:26.956Z,15.48
2022-09-20T09:31:29.749Z,15.99
2022-09-20T09:36:32.718Z,16.72
2022-09-20T09:41:35.470Z,16.61
2022-09-20T09:51:41.372Z,16.55
2022-09-20T09:56:44.922Z,17.42
2022-09-20T10:01:48.034Z,17.51
2022-09-20T10:06:52.430Z,17.41
2022-09-20T10:16:59.016Z,16.64
2022-09-20T10:22:01.531Z,16.57
2022-09-20T10:27:03.993Z,16.34
2022-09-20T10:32:06.841Z,17.1
2022-09-20T10:42:13.286Z,16.97
2022-09-20T10:47:15.836Z,17.03
2022-09-20T10:52:18.473Z,17.18
2022-09-20T10:57:21.042Z,17.64
2022-09-20T11:02:23.952Z,18.02
2022-09-20T11:07:26.842Z,17.83
2022-09-20T11:12:29.573Z,17.17
2022-09-20T11:17:32.456Z,16.27
2022-09-20T11:22:34.931Z,15.88
2022-09-20T11:32:39.961Z,14.15
2022-09-20T11:37:42.515Z,13.64
2022-09-20T11:42:45.205Z,13.9
2022-09-20T11:47:54.749Z,13.85
2022-09-20T11:52:50.614Z,14.03
2022-09-20T11:57:53.244Z,13.96
2022-09-20T12:02:56.048Z,14.14
2022-09-20T12:07:58.535Z,14.28
2022-09-20T12:13:00.985Z,14.36
2022-09-20T12:18:08.371Z,14.55
2022-09-20T12:23:06.184Z,14.62
2022-09-20T12:28:08.911Z,14.36
2022-09-20T12:33:11.529Z,14.59
2022-09-20T12:38:14.609Z,14.62
2022-09-20T12:43:17.515Z,15.34
2022-09-20T12:48:20.133Z,15.36
2022-09-20T12:53:22.680Z,14.8
2022-09-20T12:58:25.082Z,14.13
2022-09-20T13:03:27.773Z,13.55
2022-09-20T13:08:30.272Z,12.87
2022-09-20T13:13:32.964Z,12.56
2022-09-20T13:18:35.726Z,12.5
2022-09-20T13:23:38.165Z,12.54
2022-09-20T13:28:41.070Z,12.68
2022-09-20T13:33:44.003Z,13.25
2022-09-20T13:38:46.764Z,12.94
2022-09-20T13:43:49.390Z,13.2
2022-09-20T13:46:39.533Z,13.26
2022-09-20T13:51:40.591Z,13.42
2022-09-20T13:56:43.059Z,13.33
2022-09-20T14:01:45.805Z,13.32
2022-09-20T14:06:48.477Z,13.24
2022-09-20T14:11:51.240Z,13.11
2022-09-20T14:16:53.922Z,13.74
2022-09-20T14:21:56.767Z,13.95
2022-09-20T14:26:59.549Z,13.96
2022-09-20T14:32:02.174Z,14.04
2022-09-20T14:37:04.730Z,13.88
2022-09-20T14:42:07.545Z,14.2
2022-09-20T14:47:10.196Z,14.33
2022-09-20T14:52:12.837Z,14.8
2022-09-20T14:57:15.634Z,14.99
2022-09-20T15:02:18.316Z,15.08
2022-09-20T15:07:21.069Z,14.79
2022-09-20T15:12:23.579Z,14.72
2022-09-20T15:17:25.955Z,14.66
2022-09-20T15:22:28.808Z,14.51
2022-09-20T15:27:31.479Z,14.62
2022-09-20T15:32:34.137Z,14.85
2022-09-20T15:37:36.830Z,14.71
2022-09-20T15:42:39.539Z,14.83
2022-09-20T15:47:42.046Z,14.13
2022-09-20T15:52:44.748Z,13.67
2022-09-20T15:57:47.131Z,13.06
2022-09-20T16:02:49.685Z,13.01
2022-09-20T16:07:52.739Z,13.33
2022-09-20T16:12:55.547Z,13.47
2022-09-20T16:17:57.952Z,13.5
2022-09-20T16:23:00.585Z,13.53
2022-09-20T16:28:03.126Z,13.3
2022-09-20T16:33:06.063Z,12.95
2022-09-20T16:43:11.392Z,12.75
2022-09-20T16:53:16.781Z,12.86
2022-09-20T16:58:19.412Z,12.86
2022-09-20T17:08:24.982Z,12.68
2022-09-20T17:13:27.640Z,12.69
2022-09-20T17:23:33.112Z,12.67
2022-09-20T17:28:38.483Z,12.56
2022-09-20T17:33:41.356Z,12.56
2022-09-20T17:38:43.846Z,12.49
2022-09-20T17:43:46.909Z,12.47
2022-09-20T17:48:49.554Z,12.35
2022-09-20T17:53:52.093Z,12.12
2022-09-20T17:58:54.915Z,12.07
2022-09-20T18:03:57.564Z,11.96
2022-09-20T18:09:00.255Z,11.83
2022-09-20T18:14:02.738Z,11.65
2022-09-20T18:19:05.774Z,11.57
2022-09-20T18:24:08.388Z,11.47
2022-09-20T18:29:10.849Z,11.37
2022-09-20T18:34:13.411Z,11.34
2022-09-20T18:39:16.071Z,11.34
2022-09-20T18:44:19.129Z,11.27
2022-09-20T18:49:24.536Z,11.21
2022-09-20T18:54:27.167Z,11.14
2022-09-20T19:04:32.746Z,10.96
2022-09-20T19:09:35.288Z,10.92
2022-09-20T19:14:37.913Z,10.91
2022-09-20T19:19:40.779Z,10.87
2022-09-20T19:24:43.563Z,10.73
2022-09-20T19:29:46.283Z,10.79
2022-09-20T19:34:49.073Z,10.79
2022-09-20T19:39:51.823Z,10.69
2022-09-20T19:44:54.297Z,10.59
2022-09-20T19:49:57.196Z,10.5
2022-09-20T19:55:00.003Z,10.41
2022-09-20T20:00:05.152Z,10.42
2022-09-20T20:05:05.487Z,10.47
2022-09-20T20:10:08.061Z,10.43
2022-09-20T20:15:10.760Z,10.36
2022-09-20T20:20:13.612Z,10.31
2022-09-20T20:25:16.243Z,10.28
2022-09-20T20:30:18.869Z,10.19
2022-09-20T20:35:21.584Z,10.15
2022-09-20T20:40:24.051Z,10.11
2022-09-20T20:45:26.608Z,10.06
2022-09-20T20:50:29.665Z,10.11
2022-09-20T20:55:34.965Z,10.16
2022-09-20T21:00:37.733Z,10.04
2022-09-20T21:05:40.330Z,10.03
2022-09-20T21:15:45.757Z,9.86
2022-09-20T21:20:48.332Z,9.76
2022-09-20T21:25:50.876Z,9.87
2022-09-20T21:30:53.370Z,9.87
2022-09-20T21:35:56.303Z,9.79
2022-09-20T21:46:01.866Z,9.79
2022-09-20T21:56:06.953Z,9.69
2022-09-20T22:01:12.617Z,9.66
2022-09-20T22:06:15.497Z,9.7
2022-09-20T22:11:18.289Z,9.56
2022-09-20T22:16:20.618Z,9.49
2022-09-20T22:21:23.428Z,9.33
2022-09-20T22:26:26.133Z,9.31
2022-09-20T22:31:28.698Z,9.34
2022-09-20T22:36:31.341Z,9.33
2022-09-20T22:41:33.911Z,9.3
2022-09-20T22:46:36.485Z,9.32
2022-09-20T22:51:39.090Z,9.3
2022-09-20T22:56:41.702Z,9.1
2022-09-20T23:06:47.327Z,8.96
2022-09-20T23:11:50.146Z,8.89
2022-09-20T23:16:52.971Z,8.91
2022-09-20T23:21:55.570Z,8.99
2022-09-20T23:26:58.579Z,9
2022-09-20T23:32:01.194Z,9.05
2022-09-20T23:37:04.155Z,8.98
2022-09-20T23:42:06.610Z,8.93
2022-09-20T23:47:09.434Z,8.95
2022-09-20T23:52:12.159Z,8.89
2022-09-20T23:57:14.776Z,8.86
